Time;durP1;ratioP1;P1;durP2;ratioP2;P2;SDS_P1;SDS_P2;PMS_P1;PMS_P2;Temp;Humidity;BMP_temperature;BMP_pressure;BME280_temperature;BME280_humidity;BME280_pressure;Samples;Min_cycle;Max_cycle;Signal;HPM_P1;HPM_P2
2021/05/17 00:00:50;;;;;;;9.02;3.53;;;15.80;70.40;;;;;;5072817;28;20136;-58
2021/05/17 00:03:18;;;;;;;8.27;3.35;;;15.80;70.40;;;;;;5073322;28;20025;-58
2021/05/17 00:05:45;;;;;;;6.50;3.05;;;15.70;70.40;;;;;;5071144;28;20048;-58
2021/05/17 00:08:11;;;;;;;11.15;3.58;;;15.80;70.50;;;;;;5073335;28;20485;-57
2021/05/17 00:10:37;;;;;;;12.02;3.80;;;15.70;70.50;;;;;;5072759;28;20396;-57
2021/05/17 00:13:04;;;;;;;7.60;3.60;;;15.70;70.60;;;;;;5072144;28;20357;-58
2021/05/17 00:15:30;;;;;;;10.60;4.13;;;15.70;70.60;;;;;;5073274;28;20040;-58
2021/05/17 00:17:56;;;;;;;8.02;3.42;;;15.70;70.70;;;;;;5073004;28;20464;-57
2021/05/17 00:20:26;;;;;;;6.47;3.35;;;15.70;70.70;;;;;;5072460;28;20043;-58
2021/05/17 00:22:53;;;;;;;9.90;3.20;;;15.60;70.60;;;;;;5072976;28;20040;-58
2021/05/17 00:25:22;;;;;;;13.02;3.28;;;15.60;70.60;;;;;;5072829;28;20028;-57
2021/05/17 00:27:50;;;;;;;14.57;3.45;;;15.60;70.70;;;;;;5072340;28;20073;-58
2021/05/17 00:30:16;;;;;;;7.90;3.40;;;15.60;70.70;;;;;;5072616;28;20498;-58
2021/05/17 00:32:43;;;;;;;9.50;3.58;;;15.60;70.70;;;;;;5072794;28;20025;-57
2021/05/17 00:35:09;;;;;;;10.20;3.38;;;15.60;70.70;;;;;;5072068;28;20044;-58
2021/05/17 00:37:35;;;;;;;7.05;3.15;;;15.60;70.70;;;;;;5072977;28;20044;-58
2021/05/17 00:40:02;;;;;;;7.10;3.45;;;15.60;70.60;;;;;;5072888;28;20487;-58
2021/05/17 00:42:28;;;;;;;14.25;5.50;;;15.60;70.70;;;;;;5072016;28;20016;-59
2021/05/17 00:44:54;;;;;;;9.95;4.22;;;15.60;70.70;;;;;;5071470;28;20040;-58
2021/05/17 00:47:23;;;;;;;7.50;3.67;;;15.50;70.70;;;;;;5071652;28;20019;-58
2021/05/17 00:49:48;;;;;;;9.07;3.47;;;15.50;70.80;;;;;;5072300;28;20028;-57
2021/05/17 00:52:17;;;;;;;7.38;3.35;;;15.50;70.80;;;;;;5071540;28;20024;-57
2021/05/17 00:54:44;;;;;;;8.57;3.40;;;15.50;70.80;;;;;;5070704;28;20379;-57
2021/05/17 00:57:12;;;;;;;7.03;3.42;;;15.50;70.70;;;;;;5071230;28;20029;-58
2021/05/17 00:59:38;;;;;;;7.07;2.92;;;15.40;70.60;;;;;;5072331;28;20135;-57
2021/05/17 01:02:05;;;;;;;9.18;3.47;;;15.40;70.70;;;;;;5070566;28;20607;-58
2021/05/17 01:04:50;;;;;;;8.15;3.15;;;15.30;70.70;;;;;;5071348;28;20033;-57
2021/05/17 01:07:19;;;;;;;5.50;2.88;;;15.30;70.70;;;;;;5063097;28;20036;-57
2021/05/17 01:09:47;;;;;;;11.00;3.08;;;15.30;70.60;;;;;;5068989;28;20550;-57
2021/05/17 01:12:16;;;;;;;10.38;3.60;;;15.30;70.60;;;;;;5072169;28;20025;-57
2021/05/17 01:14:44;;;;;;;9.77;3.35;;;15.30;70.60;;;;;;5071084;28;20021;-57
2021/05/17 01:17:12;;;;;;;6.18;3.05;;;15.20;70.60;;;;;;5070337;28;20021;-57
2021/05/17 01:19:44;;;;;;;8.23;3.55;;;15.20;70.60;;;;;;5072427;28;20045;-57
2021/05/17 01:22:16;;;;;;;7.82;3.42;;;15.20;70.60;;;;;;5071813;28;20513;-57
2021/05/17 01:24:43;;;;;;;10.98;3.63;;;15.20;70.50;;;;;;5075115;28;20024;-67
2021/05/17 01:27:10;;;;;;;8.88;3.05;;;15.10;70.30;;;;;;5066172;28;20036;-58
2021/05/17 01:29:38;;;;;;;7.75;3.10;;;15.10;70.20;;;;;;5060712;28;20045;-58
2021/05/17 01:32:05;;;;;;;9.50;3.40;;;15.10;70.20;;;;;;5059474;28;20473;-57
2021/05/17 01:34:31;;;;;;;7.43;3.08;;;15.10;70.30;;;;;;5063376;28;20033;-58
2021/05/17 01:37:00;;;;;;;8.43;3.10;;;15.00;70.10;;;;;;5059180;28;20559;-57
2021/05/17 01:39:26;;;;;;;5.47;2.97;;;15.00;70.00;;;;;;5063765;28;20119;-57
2021/05/17 01:41:53;;;;;;;6.15;2.80;;;15.00;70.00;;;;;;5067589;28;20025;-57
2021/05/17 01:44:24;;;;;;;10.30;3.65;;;15.00;69.90;;;;;;5075239;28;20040;-58
2021/05/17 01:46:51;;;;;;;6.43;3.15;;;15.00;70.00;;;;;;5074913;28;20411;-57
2021/05/17 01:49:18;;;;;;;6.32;2.95;;;14.90;69.90;;;;;;5074540;28;20116;-57
2021/05/17 01:51:51;;;;;;;7.38;3.10;;;14.90;69.90;;;;;;5075092;28;20028;-58
2021/05/17 01:54:19;;;;;;;7.45;3.10;;;14.90;69.90;;;;;;5075940;28;20045;-57
2021/05/17 01:56:48;;;;;;;18.55;3.95;;;14.80;70.00;;;;;;5074513;28;20042;-57
2021/05/17 01:59:30;;;;;;;;;;;14.80;70.10;;;;;;5073923;28;20056;-57
2021/05/17 02:01:57;;;;;;;5.63;2.95;;;14.80;70.10;;;;;;5075708;28;19912;-57
2021/05/17 02:04:25;;;;;;;8.20;2.95;;;14.80;70.20;;;;;;5075457;28;20103;-57
2021/05/17 02:06:53;;;;;;;4.95;2.95;;;14.70;70.50;;;;;;5074863;28;20487;-57
2021/05/17 02:09:20;;;;;;;10.63;2.95;;;14.70;70.70;;;;;;5074241;28;20043;-57
2021/05/17 02:11:46;;;;;;;9.05;2.90;;;14.70;70.90;;;;;;5074247;28;20062;-57
2021/05/17 02:14:44;;;;;;;6.82;3.05;;;14.70;71.20;;;;;;5057466;28;20480;-58
2021/05/17 02:17:11;;;;;;;7.05;2.80;;;14.60;71.30;;;;;;5075358;28;20480;-57
2021/05/17 02:19:37;;;;;;;10.20;3.60;;;14.70;71.70;;;;;;5074681;28;20048;-57
2021/05/17 02:22:03;;;;;;;7.97;3.60;;;14.70;71.90;;;;;;5075069;28;20023;-57
2021/05/17 02:24:32;;;;;;;8.43;4.07;;;14.70;72.00;;;;;;5074042;28;20032;-57
2021/05/17 02:26:58;;;;;;;7.18;3.25;;;14.60;72.30;;;;;;5074359;28;20033;-57
2021/05/17 02:29:25;;;;;;;9.68;3.20;;;14.60;72.40;;;;;;5073930;28;20036;-57
2021/05/17 02:31:51;;;;;;;7.03;3.22;;;14.60;72.60;;;;;;5073741;28;20099;-57
2021/05/17 02:34:18;;;;;;;8.00;3.78;;;14.70;72.80;;;;;;5072476;28;20067;-57
2021/05/17 02:36:44;;;;;;;8.30;3.63;;;14.70;72.90;;;;;;5073901;28;20048;-57
2021/05/17 02:39:09;;;;;;;12.70;2.92;;;14.70;72.90;;;;;;5069302;28;20086;-57
2021/05/17 02:41:40;;;;;;;7.18;3.30;;;14.60;73.00;;;;;;5064656;28;20041;-57
2021/05/17 02:44:06;;;;;;;8.70;3.72;;;14.70;73.20;;;;;;5073575;28;20016;-58
2021/05/17 02:46:32;;;;;;;8.68;3.10;;;14.60;73.30;;;;;;5073671;28;20028;-57
2021/05/17 02:48:58;;;;;;;11.23;2.97;;;14.60;73.30;;;;;;5074126;28;20040;-57
2021/05/17 02:51:25;;;;;;;7.30;3.40;;;14.70;73.50;;;;;;5074847;28;20032;-58
2021/05/17 02:53:50;;;;;;;7.68;3.10;;;14.70;73.60;;;;;;5074670;28;20024;-57
2021/05/17 02:56:48;;;;;;;7.05;3.47;;;14.70;73.60;;;;;;5072830;28;20021;-57
2021/05/17 02:59:21;;;;;;;6.40;3.10;;;14.70;73.80;;;;;;5073100;28;20060;-58
2021/05/17 03:01:53;;;;;;;7.00;3.10;;;14.70;73.80;;;;;;5072655;28;20035;-57
2021/05/17 03:04:21;;;;;;;7.97;2.90;;;14.70;73.80;;;;;;5073243;28;20028;-57
2021/05/17 03:07:04;;;;;;;8.80;3.22;;;14.70;74.00;;;;;;5073295;28;20035;-57
2021/05/17 03:09:32;;;;;;;7.10;3.13;;;14.70;74.00;;;;;;5073702;28;20082;-57
2021/05/17 03:12:02;;;;;;;4.68;2.90;;;14.70;74.00;;;;;;5073159;28;20032;-57
2021/05/17 03:14:30;;;;;;;7.07;3.33;;;14.70;74.20;;;;;;5073016;28;20502;-57
2021/05/17 03:17:11;;;;;;;3.53;2.20;;;14.70;74.30;;;;;;5073569;28;20435;-58
2021/05/17 03:19:38;;;;;;;5.13;2.38;;;14.70;74.30;;;;;;5074162;28;20055;-58
2021/05/17 03:22:05;;;;;;;6.55;2.50;;;14.60;74.20;;;;;;5074261;28;20033;-57
2021/05/17 03:24:36;;;;;;;6.28;2.47;;;14.60;74.30;;;;;;5073449;28;20075;-57
2021/05/17 03:27:22;;;;;;;4.63;2.13;;;14.60;74.30;;;;;;5074083;28;20094;-58
2021/05/17 03:29:49;;;;;;;4.53;2.35;;;14.60;74.30;;;;;;5072098;28;20127;-57
2021/05/17 03:32:15;;;;;;;3.53;2.00;;;14.60;74.20;;;;;;5074085;28;20127;-58
2021/05/17 03:34:40;;;;;;;3.97;2.08;;;14.60;74.20;;;;;;5073955;28;20480;-58
2021/05/17 03:37:06;;;;;;;3.22;1.85;;;14.60;74.10;;;;;;5073206;28;20032;-58
2021/05/17 03:39:32;;;;;;;4.00;2.00;;;14.60;74.10;;;;;;5073797;28;20164;-58
2021/05/17 03:41:58;;;;;;;5.57;1.95;;;14.60;74.20;;;;;;5073653;28;20056;-58
2021/05/17 03:44:23;;;;;;;2.25;1.70;;;14.60;74.20;;;;;;5073345;28;20433;-58
2021/05/17 03:46:49;;;;;;;5.00;1.90;;;14.60;74.20;;;;;;5072835;28;20021;-58
2021/05/17 03:49:15;;;;;;;3.45;1.88;;;14.50;74.10;;;;;;5073681;28;20056;-57
2021/05/17 03:51:40;;;;;;;3.47;1.88;;;14.60;74.20;;;;;;5072956;28;20033;-57
2021/05/17 03:54:06;;;;;;;3.70;2.00;;;14.60;74.40;;;;;;5060533;28;20151;-58
2021/05/17 03:56:32;;;;;;;4.57;2.15;;;14.50;74.30;;;;;;5072193;28;20037;-58
2021/05/17 03:58:57;;;;;;;4.15;2.10;;;14.50;74.30;;;;;;5070160;28;20035;-57
2021/05/17 04:01:23;;;;;;;4.53;2.33;;;14.50;74.30;;;;;;5072224;28;20047;-58
2021/05/17 04:03:50;;;;;;;3.95;2.00;;;14.50;74.50;;;;;;5072059;28;20040;-57
2021/05/17 04:13:53;;;;;;;3.50;2.10;;;14.50;74.50;;;;;;5072287;28;20032;-58
2021/05/17 04:16:18;;;;;;;4.43;2.33;;;14.50;74.50;;;;;;5072087;28;20036;-58
2021/05/17 04:18:45;;;;;;;5.05;2.58;;;14.50;74.70;;;;;;5072357;28;20024;-57
2021/05/17 04:21:12;;;;;;;4.90;2.63;;;14.50;74.70;;;;;;5073043;28;20032;-57
2021/05/17 04:23:37;;;;;;;4.10;2.33;;;14.50;74.70;;;;;;5072703;28;20024;-58
2021/05/17 04:26:03;;;;;;;6.05;3.22;;;14.50;74.70;;;;;;5072607;28;20033;-57
2021/05/17 04:28:29;;;;;;;4.85;3.00;;;14.50;74.60;;;;;;5072759;28;20036;-57
2021/05/17 04:30:55;;;;;;;7.40;2.88;;;14.40;74.70;;;;;;5073096;28;20050;-58
2021/05/17 04:33:20;;;;;;;6.22;2.70;;;14.40;75.40;;;;;;5072299;28;20028;-57
2021/05/17 04:35:46;;;;;;;4.70;2.70;;;14.50;74.70;;;;;;5072797;28;20059;-58
2021/05/17 04:38:12;;;;;;;4.95;2.80;;;14.40;74.50;;;;;;5072888;28;20032;-57
2021/05/17 04:40:43;;;;;;;5.13;3.00;;;14.40;74.60;;;;;;5072092;28;20036;-57
2021/05/17 04:43:09;;;;;;;10.32;3.40;;;14.40;74.70;;;;;;5072939;28;20036;-57
2021/05/17 04:45:34;;;;;;;8.85;3.55;;;14.40;74.90;;;;;;5072528;28;20074;-57
2021/05/17 04:48:00;;;;;;;6.85;3.35;;;14.40;74.80;;;;;;5070766;28;20024;-57
2021/05/17 04:50:26;;;;;;;6.72;3.90;;;14.40;74.90;;;;;;5072585;28;20033;-57
2021/05/17 04:52:51;;;;;;;6.00;3.65;;;14.40;75.20;;;;;;5072504;28;20082;-57
2021/05/17 04:55:17;;;;;;;7.38;4.10;;;14.30;75.40;;;;;;5072227;28;20032;-58
2021/05/17 04:57:43;;;;;;;6.75;3.83;;;14.30;75.60;;;;;;5072357;28;20021;-58
2021/05/17 05:00:10;;;;;;;6.22;4.13;;;14.40;75.90;;;;;;5072292;28;20487;-58
2021/05/17 05:02:36;;;;;;;6.53;3.92;;;14.40;76.10;;;;;;5071813;28;20432;-58
2021/05/17 05:05:02;;;;;;;7.78;4.10;;;14.40;76.30;;;;;;5071631;28;20159;-57
2021/05/17 05:07:28;;;;;;;7.63;4.13;;;14.40;76.40;;;;;;5063372;28;20029;-58
2021/05/17 05:09:53;;;;;;;10.65;3.70;;;14.50;76.70;;;;;;5067954;28;20486;-60
2021/05/17 05:12:19;;;;;;;7.40;4.10;;;14.50;76.80;;;;;;5066426;28;20028;-60
2021/05/17 05:14:44;;;;;;;6.75;4.22;;;14.40;76.90;;;;;;5068595;28;20109;-59
2021/05/17 05:17:10;;;;;;;7.25;4.32;;;14.50;77.20;;;;;;5071504;28;20539;-58
2021/05/17 05:19:36;;;;;;;11.65;4.40;;;14.50;77.40;;;;;;5055785;28;20045;-57
2021/05/17 05:22:02;;;;;;;5.25;3.90;;;14.50;77.60;;;;;;5059211;28;20428;-57
2021/05/17 05:24:27;;;;;;;10.05;4.63;;;14.50;77.80;;;;;;5058540;28;20099;-57
2021/05/17 05:34:16;;;;;;;7.18;4.20;;;14.60;77.80;;;;;;5053323;28;20034;-58
2021/05/17 05:36:42;;;;;;;9.90;4.28;;;14.50;77.70;;;;;;5051985;28;20086;-60
2021/05/17 05:39:08;;;;;;;7.53;4.20;;;14.60;77.90;;;;;;5057160;28;20060;-58
2021/05/17 05:41:34;;;;;;;11.48;3.92;;;14.50;78.30;;;;;;5052010;28;20025;-59
2021/05/17 05:44:00;;;;;;;11.02;4.65;;;14.50;77.90;;;;;;5051800;28;20384;-57
2021/05/17 05:46:27;;;;;;;7.30;4.45;;;14.60;77.90;;;;;;5058376;28;20036;-58
2021/05/17 05:48:53;;;;;;;8.93;4.97;;;14.60;77.80;;;;;;5054990;28;20033;-59
2021/05/17 05:51:22;;;;;;;8.93;4.80;;;14.50;78.50;;;;;;5057116;28;20044;-60
2021/05/17 05:53:49;;;;;;;7.93;4.45;;;14.50;77.90;;;;;;5053525;28;20032;-60
2021/05/17 05:56:15;;;;;;;7.90;4.25;;;14.60;78.10;;;;;;5053952;28;20160;-58
2021/05/17 05:58:47;;;;;;;8.88;4.72;;;14.60;78.30;;;;;;5052102;28;20472;-58
2021/05/17 06:01:14;;;;;;;8.32;4.38;;;14.60;78.40;;;;;;5053131;28;20107;-59
2021/05/17 06:03:40;;;;;;;6.28;4.38;;;14.60;78.20;;;;;;5052346;28;20044;-58
2021/05/17 06:06:08;;;;;;;7.72;4.13;;;14.60;77.50;;;;;;5052858;28;20032;-59
2021/05/17 06:08:39;;;;;;;11.25;5.53;;;14.50;77.40;;;;;;5052741;28;20086;-58
2021/05/17 06:11:06;;;;;;;9.20;4.80;;;14.60;77.80;;;;;;5055171;28;20090;-58
2021/05/17 06:13:33;;;;;;;11.00;5.28;;;14.60;78.10;;;;;;5056208;28;20071;-59
2021/05/17 06:15:59;;;;;;;9.82;4.90;;;14.50;78.20;;;;;;5067215;28;20825;-58
2021/05/17 06:18:25;;;;;;;13.85;5.40;;;14.60;78.20;;;;;;5074010;28;20081;-58
2021/05/17 06:20:51;;;;;;;10.50;5.55;;;14.60;78.20;;;;;;5075046;28;20123;-58
2021/05/17 06:23:18;;;;;;;10.70;5.30;;;14.60;78.40;;;;;;5075385;28;20480;-58
2021/05/17 06:25:44;;;;;;;10.10;5.95;;;14.60;78.20;;;;;;5074771;28;20028;-58
2021/05/17 06:28:10;;;;;;;10.00;5.75;;;14.60;78.50;;;;;;5075277;28;20115;-58
2021/05/17 06:30:51;;;;;;;9.73;5.78;;;14.70;78.60;;;;;;5075071;28;20032;-58
2021/05/17 06:33:19;;;;;;;7.85;5.20;;;14.70;78.70;;;;;;5074730;28;20036;-58
2021/05/17 06:35:51;;;;;;;9.55;6.13;;;14.70;78.90;;;;;;5074933;28;20509;-58
2021/05/17 06:38:16;;;;;;;13.43;6.00;;;14.70;79.00;;;;;;5075128;28;20088;-58
2021/05/17 06:40:43;;;;;;;9.52;5.38;;;14.70;79.40;;;;;;5074109;28;20116;-58
2021/05/17 06:43:09;;;;;;;10.25;6.00;;;14.80;79.00;;;;;;5074910;28;20067;-58
2021/05/17 06:45:35;;;;;;;10.85;6.07;;;14.80;79.40;;;;;;5074788;28;20032;-58
2021/05/17 06:48:01;;;;;;;10.85;6.30;;;14.80;79.70;;;;;;5074344;28;20021;-58
2021/05/17 06:50:28;;;;;;;10.57;5.68;;;14.80;79.90;;;;;;5074732;28;20112;-58
2021/05/17 06:52:54;;;;;;;10.27;6.00;;;14.80;79.40;;;;;;5074897;28;20033;-58
2021/05/17 06:55:28;;;;;;;10.05;6.35;;;14.80;79.00;;;;;;5074016;28;20377;-58
2021/05/17 07:00:39;;;;;;;11.23;6.13;;;14.80;79.60;;;;;;5073751;28;20048;-58
2021/05/17 07:03:09;;;;;;;15.38;6.50;;;14.80;79.70;;;;;;5075170;28;20032;-59
2021/05/17 07:05:39;;;;;;;9.80;6.32;;;14.90;79.20;;;;;;5074779;28;20024;-59
2021/05/17 07:13:20;;;;;;;11.15;6.55;;;15.00;79.60;;;;;;5061402;28;20142;-58
2021/05/17 07:15:46;;;;;;;8.95;5.93;;;15.00;79.40;;;;;;5073407;28;20032;-58
2021/05/17 07:18:12;;;;;;;8.60;6.10;;;15.10;79.60;;;;;;5074277;28;20074;-58
2021/05/17 07:25:51;;;;;;;9.23;4.85;;;15.20;79.40;;;;;;5062326;28;20020;-58
2021/05/17 07:28:17;;;;;;;7.57;5.28;;;15.20;79.40;;;;;;5074082;28;20031;-58
2021/05/17 07:30:43;;;;;;;11.77;5.70;;;15.20;79.40;;;;;;5073639;28;20033;-58
2021/05/17 07:33:09;;;;;;;6.72;4.80;;;15.30;78.50;;;;;;5074490;28;20056;-58
2021/05/17 07:35:34;;;;;;;10.50;5.95;;;15.30;78.10;;;;;;5073082;28;20050;-58
2021/05/17 07:38:00;;;;;;;8.77;5.28;;;15.30;77.50;;;;;;5074048;28;20493;-58
2021/05/17 07:40:26;;;;;;;8.00;5.05;;;15.20;77.90;;;;;;5073585;28;20115;-58
2021/05/17 07:42:54;;;;;;;13.57;5.43;;;15.30;77.70;;;;;;5073154;28;20055;-58
2021/05/17 07:45:23;;;;;;;7.03;4.25;;;15.30;77.60;;;;;;5073416;28;20040;-59
2021/05/17 07:47:49;;;;;;;7.50;4.07;;;15.40;77.80;;;;;;5073449;28;20498;-61
2021/05/17 07:50:15;;;;;;;8.70;5.63;;;15.40;77.50;;;;;;5057524;28;20052;-61
2021/05/17 07:52:41;;;;;;;10.80;5.20;;;15.40;76.90;;;;;;5066626;28;20025;-58
2021/05/17 07:55:07;;;;;;;11.43;5.85;;;15.50;77.10;;;;;;5063912;28;20029;-58
2021/05/17 07:57:33;;;;;;;7.82;4.13;;;15.60;77.50;;;;;;5057176;28;20029;-58
2021/05/17 07:59:59;;;;;;;6.85;3.88;;;15.60;76.60;;;;;;5056962;28;20059;-58
2021/05/17 08:02:25;;;;;;;6.78;4.70;;;15.60;76.50;;;;;;5057752;28;20028;-58
2021/05/17 08:04:51;;;;;;;6.38;3.80;;;15.60;77.00;;;;;;5058803;28;20033;-58
2021/05/17 08:07:23;;;;;;;7.90;4.25;;;15.60;76.80;;;;;;5057024;28;20017;-59
2021/05/17 08:09:51;;;;;;;7.60;4.13;;;15.60;76.80;;;;;;5056591;28;20487;-59
2021/05/17 08:12:20;;;;;;;7.30;4.38;;;15.60;76.40;;;;;;5056139;28;20033;-59
2021/05/17 08:14:45;;;;;;;8.50;4.57;;;15.70;76.60;;;;;;5060495;28;20024;-58
2021/05/17 08:17:11;;;;;;;9.27;4.80;;;15.70;76.90;;;;;;5072968;28;20052;-59
2021/05/17 08:19:37;;;;;;;7.60;4.32;;;15.70;76.50;;;;;;5072429;28;20106;-59
2021/05/17 08:22:04;;;;;;;7.90;4.95;;;15.70;75.80;;;;;;5072797;28;20025;-59
2021/05/17 08:24:30;;;;;;;7.10;4.75;;;15.70;76.00;;;;;;5073204;28;20137;-59
2021/05/17 08:26:56;;;;;;;6.00;4.03;;;15.70;76.30;;;;;;5072298;28;20054;-59
2021/05/17 08:29:22;;;;;;;7.18;4.43;;;15.80;76.00;;;;;;5072957;28;20059;-59
2021/05/17 08:31:50;;;;;;;7.55;4.28;;;15.80;76.20;;;;;;5071517;28;20119;-58
2021/05/17 08:34:17;;;;;;;8.25;4.72;;;15.80;76.00;;;;;;5072872;28;20081;-59
2021/05/17 08:36:43;;;;;;;9.82;5.75;;;15.80;75.90;;;;;;5072727;28;20463;-59
2021/05/17 08:39:09;;;;;;;7.35;4.20;;;15.90;76.10;;;;;;5071970;28;20039;-58
2021/05/17 08:41:38;;;;;;;6.10;3.55;;;15.90;75.60;;;;;;5072816;28;20024;-58
2021/05/17 08:44:05;;;;;;;8.23;4.75;;;16.00;75.60;;;;;;5072579;28;20420;-58
2021/05/17 08:46:31;;;;;;;6.15;4.05;;;16.00;75.90;;;;;;5072294;28;20040;-59
2021/05/17 08:48:57;;;;;;;8.88;5.15;;;16.00;75.50;;;;;;5072696;28;20036;-59
2021/05/17 08:51:28;;;;;;;10.13;5.50;;;16.10;75.60;;;;;;5072886;28;20040;-58
2021/05/17 08:53:58;;;;;;;9.45;5.82;;;16.20;75.90;;;;;;5070530;28;20029;-59
2021/05/17 08:56:24;;;;;;;13.55;7.38;;;16.20;75.80;;;;;;5072739;28;20028;-58
2021/05/17 08:58:55;;;;;;;12.80;6.43;;;16.30;75.60;;;;;;5070880;28;20040;-60
2021/05/17 09:01:20;;;;;;;11.50;6.50;;;16.30;75.70;;;;;;5071398;28;20450;-60
2021/05/17 09:03:56;;;;;;;17.83;7.05;;;16.40;75.30;;;;;;5068383;28;20029;-60
2021/05/17 09:06:34;;;;;;;13.30;8.02;;;16.50;75.20;;;;;;5062677;28;20095;-60
2021/05/17 09:09:04;;;;;;;11.57;5.68;;;16.50;75.00;;;;;;5060876;28;20115;-60
2021/05/17 09:11:32;;;;;;;10.75;5.75;;;16.60;74.80;;;;;;5070656;28;20033;-60
2021/05/17 09:14:13;;;;;;;11.82;6.60;;;16.60;74.50;;;;;;5052725;28;20445;-60
2021/05/17 09:17:00;;;;;;;9.07;6.05;;;16.50;74.10;;;;;;5068306;28;20379;-61
2021/05/17 09:19:28;;;;;;;10.60;6.35;;;16.50;74.00;;;;;;5071242;28;20033;-62
2021/05/17 09:22:05;;;;;;;15.18;6.97;;;16.60;74.40;;;;;;5071298;28;20151;-62
2021/05/17 09:24:33;;;;;;;12.00;6.80;;;16.60;73.90;;;;;;5068376;28;20494;-62
2021/05/17 09:26:58;;;;;;;10.18;7.05;;;16.70;74.00;;;;;;5065979;28;20040;-62
2021/05/17 09:29:24;;;;;;;10.05;4.05;;;16.70;73.90;;;;;;5068167;28;20090;-61
2021/05/17 09:32:09;;;;;;;10.52;5.90;;;16.70;73.80;;;;;;5063572;28;20041;-62
2021/05/17 09:34:35;;;;;;;14.40;7.90;;;16.70;73.60;;;;;;5068647;28;20043;-62
2021/05/17 09:37:05;;;;;;;10.88;4.47;;;16.70;73.60;;;;;;5064391;28;20025;-64
2021/05/17 09:39:31;;;;;;;12.73;5.90;;;16.80;73.60;;;;;;5065944;28;20480;-65
2021/05/17 09:41:57;;;;;;;9.10;4.72;;;16.80;73.40;;;;;;5067262;28;20087;-62
2021/05/17 09:44:24;;;;;;;8.10;5.50;;;16.80;73.50;;;;;;5072910;28;20502;-61
2021/05/17 09:47:13;;;;;;;8.32;5.78;;;16.80;73.50;;;;;;5075367;28;20039;-62
2021/05/17 09:49:50;;;;;;;11.40;5.65;;;16.80;73.30;;;;;;5072279;28;20476;-62
2021/05/17 09:52:32;;;;;;;10.27;4.78;;;16.80;73.20;;;;;;5073489;28;20025;-63
2021/05/17 09:55:06;;;;;;;11.20;6.50;;;16.80;73.30;;;;;;5074496;28;20047;-62
2021/05/17 09:57:35;;;;;;;8.48;4.35;;;16.90;73.30;;;;;;5075015;28;20032;-62
2021/05/17 10:00:09;;;;;;;9.88;5.30;;;16.90;73.30;;;;;;5069475;28;20519;-62
2021/05/17 10:02:45;;;;;;;10.48;6.72;;;17.00;73.20;;;;;;5061747;28;20032;-62
2021/05/17 10:05:14;;;;;;;9.63;5.35;;;17.00;73.30;;;;;;5068726;28;20033;-62
2021/05/17 10:07:45;;;;;;;13.52;8.68;;;17.00;73.10;;;;;;5061720;28;20040;-62
2021/05/17 10:10:12;;;;;;;12.43;6.57;;;17.10;73.30;;;;;;5058684;28;20467;-62
2021/05/17 10:12:38;;;;;;;11.50;4.80;;;17.10;72.90;;;;;;5070171;28;20036;-62
2021/05/17 10:15:06;;;;;;;13.32;6.38;;;17.10;73.00;;;;;;5074845;28;20029;-62
2021/05/17 10:17:36;;;;;;;10.05;6.68;;;17.20;72.90;;;;;;5074253;28;20372;-62
2021/05/17 10:20:04;;;;;;;13.10;7.28;;;17.20;72.70;;;;;;5074615;28;20063;-62
2021/05/17 10:22:30;;;;;;;10.52;4.90;;;17.10;72.10;;;;;;5074817;28;20037;-62
2021/05/17 10:24:58;;;;;;;9.35;4.78;;;17.20;72.40;;;;;;5073900;28;20038;-62
2021/05/17 10:27:27;;;;;;;6.22;4.45;;;17.30;72.60;;;;;;5072315;28;20035;-62
2021/05/17 10:30:04;;;;;;;8.10;4.28;;;17.30;72.60;;;;;;5062271;28;20037;-63
2021/05/17 10:32:43;;;;;;;7.97;5.45;;;17.30;72.80;;;;;;5054761;28;20124;-62
2021/05/17 10:35:17;;;;;;;9.65;5.82;;;17.40;73.10;;;;;;5055633;28;20064;-62
2021/05/17 10:37:46;;;;;;;8.75;5.40;;;17.40;73.50;;;;;;5055298;28;20036;-65
2021/05/17 10:40:39;;;;;;;9.05;5.63;;;17.40;73.60;;;;;;5066101;28;20060;-65
2021/05/17 10:43:39;;;;;;;8.10;5.18;;;17.40;73.80;;;;;;5072886;28;20537;-65
2021/05/17 10:49:19;;;;;;;9.70;5.85;;;17.40;74.70;;;;;;5063104;28;20613;-65
2021/05/17 10:51:45;;;;;;;11.82;5.50;;;17.40;74.00;;;;;;5073060;28;20039;-65
2021/05/17 10:54:25;;;;;;;13.55;6.75;;;17.40;74.40;;;;;;5073631;28;20024;-65
2021/05/17 11:02:22;;;;;;;11.23;6.40;;;17.40;74.60;;;;;;5066054;28;20048;-64
2021/05/17 11:04:48;;;;;;;9.00;6.18;;;17.50;73.90;;;;;;5065399;28;20036;-65
2021/05/17 11:07:28;;;;;;;12.55;6.50;;;17.50;74.10;;;;;;5059562;28;20087;-65
2021/05/17 11:10:07;;;;;;;9.45;6.28;;;17.50;73.50;;;;;;5060079;28;20108;-65
2021/05/17 11:12:44;;;;;;;11.38;6.45;;;17.50;73.10;;;;;;5060652;28;20021;-65
2021/05/17 11:15:13;;;;;;;9.75;6.35;;;17.60;73.10;;;;;;5061191;28;20059;-65
2021/05/17 11:18:06;;;;;;;10.35;6.60;;;17.60;72.80;;;;;;5074043;28;20395;-63
2021/05/17 11:20:41;;;;;;;12.03;7.60;;;17.60;72.90;;;;;;5058363;28;20097;-63
2021/05/17 11:23:07;;;;;;;10.48;6.40;;;17.60;72.30;;;;;;5072457;28;20289;-63
2021/05/17 11:26:10;;;;;;;11.88;6.57;;;17.70;71.90;;;;;;5073759;28;20016;-67
2021/05/17 11:28:43;;;;;;;10.75;6.30;;;17.70;72.00;;;;;;5070250;28;20040;-66
2021/05/17 11:31:38;;;;;;;10.88;6.57;;;17.70;71.40;;;;;;5064286;28;20032;-65
2021/05/17 11:34:06;;;;;;;9.73;6.18;;;17.70;71.40;;;;;;5073066;28;20020;-62
2021/05/17 11:36:52;;;;;;;13.07;6.65;;;17.70;71.50;;;;;;5073204;28;20146;-61
2021/05/17 11:39:19;;;;;;;11.40;7.07;;;17.80;71.40;;;;;;5071676;28;20110;-61
2021/05/17 11:41:57;;;;;;;14.35;6.30;;;17.90;71.30;;;;;;5071240;28;20043;-61
2021/05/17 11:44:32;;;;;;;10.05;6.78;;;17.90;71.40;;;;;;5059505;28;20020;-61
2021/05/17 11:47:04;;;;;;;9.18;6.65;;;17.90;71.70;;;;;;5070776;28;20094;-61
2021/05/17 11:49:35;;;;;;;10.88;6.65;;;17.90;71.60;;;;;;5059671;28;20031;-61
2021/05/17 11:52:08;;;;;;;9.55;6.75;;;17.90;71.50;;;;;;5071189;28;20044;-61
2021/05/17 11:54:46;;;;;;;12.98;7.63;;;18.00;71.80;;;;;;5060177;28;20020;-61
2021/05/17 11:57:12;;;;;;;11.90;6.93;;;18.00;71.90;;;;;;5069606;28;20040;-61
2021/05/17 11:59:38;;;;;;;10.77;6.78;;;18.00;71.50;;;;;;5071905;28;20040;-61
2021/05/17 12:02:14;;;;;;;11.23;6.93;;;18.00;71.60;;;;;;5071481;28;20139;-61
2021/05/17 12:04:42;;;;;;;11.02;7.47;;;18.00;71.70;;;;;;5071302;28;20107;-61
2021/05/17 12:07:18;;;;;;;14.15;8.80;;;18.00;72.40;;;;;;5070842;28;20036;-63
2021/05/17 12:09:52;;;;;;;14.65;8.20;;;18.00;72.50;;;;;;5069144;28;20031;-62
2021/05/17 12:12:30;;;;;;;;;;;18.00;72.70;;;;;;5061499;28;20070;-62
2021/05/17 12:15:04;;;;;;;12.73;9.10;;;18.00;72.90;;;;;;5059642;28;20386;-63
2021/05/17 12:17:35;;;;;;;17.02;10.05;;;18.00;72.70;;;;;;5070963;28;20031;-61
2021/05/17 12:20:07;;;;;;;14.15;9.50;;;17.90;72.90;;;;;;5072493;28;20048;-61
2021/05/17 12:22:40;;;;;;;18.45;9.27;;;18.00;73.00;;;;;;5072580;28;20071;-61
2021/05/17 12:25:11;;;;;;;18.83;9.43;;;17.90;73.10;;;;;;5057418;28;20029;-61
2021/05/17 12:27:38;;;;;;;13.98;9.20;;;17.90;73.30;;;;;;5052524;28;20028;-61
2021/05/17 12:30:17;;;;;;;16.17;5.40;;;17.90;74.00;;;;;;5052991;28;20076;-62
2021/05/17 12:32:54;;;;;;;15.55;5.75;;;17.80;74.70;;;;;;5053976;28;20037;-62
2021/05/17 12:35:39;;;;;;;10.23;6.10;;;17.80;75.40;;;;;;5053519;28;20025;-62
2021/05/17 12:38:13;;;;;;;12.38;8.07;;;17.60;75.90;;;;;;5066475;28;20082;-62
2021/05/17 12:40:40;;;;;;;14.88;8.25;;;17.60;75.70;;;;;;5066623;28;20044;-62
2021/05/17 12:43:14;;;;;;;18.95;8.00;;;17.40;75.50;;;;;;5053020;28;20029;-62
2021/05/17 12:46:01;;;;;;;17.23;8.50;;;17.40;75.60;;;;;;5053173;28;20017;-62
2021/05/17 12:48:43;;;;;;;13.82;6.95;;;17.30;75.60;;;;;;5044546;28;20033;-62
2021/05/17 12:51:16;;;;;;;13.93;7.57;;;17.30;75.60;;;;;;5057317;28;20044;-62
2021/05/17 12:53:42;;;;;;;14.40;7.78;;;17.30;75.70;;;;;;5070373;28;20035;-62
2021/05/17 12:56:08;;;;;;;14.75;7.57;;;17.20;75.70;;;;;;5070965;28;20024;-62
2021/05/17 12:58:41;;;;;;;11.48;7.55;;;17.20;75.80;;;;;;5069441;28;20082;-62
2021/05/17 13:01:14;;;;;;;15.32;7.90;;;17.20;76.10;;;;;;5069045;28;20063;-62
2021/05/17 13:03:45;;;;;;;11.80;7.13;;;17.20;76.10;;;;;;5069237;28;20052;-62
2021/05/17 13:06:20;;;;;;;13.90;8.25;;;17.10;76.40;;;;;;5069225;28;20396;-62
2021/05/17 13:08:49;;;;;;;12.82;7.70;;;17.10;76.60;;;;;;5058378;28;20029;-62
2021/05/17 13:11:24;;;;;;;13.05;7.82;;;17.10;76.60;;;;;;5062822;28;20591;-62
2021/05/17 13:13:58;;;;;;;14.70;8.05;;;17.10;76.60;;;;;;5069381;28;20494;-62
2021/05/17 13:16:37;;;;;;;14.93;8.02;;;17.10;76.60;;;;;;5069033;28;20063;-62
2021/05/17 13:32:13;;;;;;;13.95;8.80;;;17.00;77.10;;;;;;5061437;28;20033;-62
2021/05/17 13:34:41;;;;;;;13.30;7.93;;;17.00;77.00;;;;;;5073396;28;20372;-62
2021/05/17 13:37:07;;;;;;;12.50;7.55;;;17.00;77.10;;;;;;5074561;28;20028;-62
2021/05/17 13:39:32;;;;;;;13.70;7.72;;;17.00;77.20;;;;;;5074176;28;20472;-62
2021/05/17 13:41:58;;;;;;;15.07;8.10;;;16.90;77.40;;;;;;5070549;28;20025;-61
2021/05/17 13:44:24;;;;;;;13.00;8.13;;;16.90;77.30;;;;;;5064934;28;20435;-62